Time;durP1;ratioP1;P1;durP2;ratioP2;P2;SDS_P1;SDS_P2;PMS_P1;PMS_P2;Temp;Humidity;BMP_temperature;BMP_pressure;BME280_temperature;BME280_humidity;BME280_pressure;Samples;Min_cycle;Max_cycle;Signal;HPM_P1;HPM_P2
2024/03/01 00:01:37;;;;;;;22.00;11.60;;;;;;;3.65;100.00;100814.21;105953;1259;60471;-55
2024/03/01 00:04:04;;;;;;;23.40;13.40;;;;;;;3.64;100.00;100809.25;108872;1254;59123;-56
2024/03/01 00:06:32;;;;;;;20.50;12.10;;;;;;;3.60;100.00;100812.27;108736;1254;74319;-56
2024/03/01 00:08:59;;;;;;;22.10;13.80;;;;;;;3.53;100.00;100817.09;106071;1258;66936;-57
2024/03/01 00:11:26;;;;;;;23.70;13.60;;;;;;;3.47;100.00;100821.01;105949;1261;71591;-57
2024/03/01 00:13:54;;;;;;;19.20;12.80;;;;;;;3.43;100.00;100817.29;106017;1259;60445;-56
2024/03/01 00:16:21;;;;;;;22.50;13.90;;;;;;;3.39;100.00;100816.60;105980;1262;60779;-56
2024/03/01 00:18:49;;;;;;;30.10;14.10;;;;;;;3.35;100.00;100827.42;106144;1260;72576;-55
2024/03/01 00:21:16;;;;;;;23.10;12.30;;;;;;;3.31;100.00;100825.48;105965;1254;66947;-55
2024/03/01 00:23:44;;;;;;;27.90;12.30;;;;;;;3.28;100.00;100827.44;105937;1271;72749;-58
2024/03/01 00:26:11;;;;;;;23.00;10.90;;;;;;;3.25;100.00;100821.58;105947;1258;60561;-58
2024/03/01 00:28:39;;;;;;;21.90;10.50;;;;;;;3.24;100.00;100822.10;105989;1261;60767;-56
2024/03/01 00:31:06;;;;;;;19.80;10.10;;;;;;;3.23;100.00;100819.45;102112;1261;5366748;-55
2024/03/01 00:34:25;;;;;;;22.60;12.40;;;;;;;3.21;100.00;100838.27;102629;1294;602474;-55
2024/03/01 00:36:52;;;;;;;22.30;13.20;;;;;;;3.15;100.00;100838.80;105328;1287;60002;-55
2024/03/01 00:39:20;;;;;;;26.90;12.30;;;;;;;3.11;100.00;100832.25;105285;1272;60189;-56
2024/03/01 00:41:47;;;;;;;21.50;12.40;;;;;;;3.08;100.00;100836.14;105766;1269;70629;-55
2024/03/01 00:44:15;;;;;;;22.90;13.20;;;;;;;3.07;100.00;100830.48;105767;1265;66258;-54
2024/03/01 00:46:44;;;;;;;20.20;13.00;;;;;;;3.05;100.00;100826.77;103413;1272;5331131;-56
2024/03/01 00:49:13;;;;;;;22.30;13.30;;;;;;;3.01;100.00;100824.28;105862;1267;59318;-56
2024/03/01 00:51:40;;;;;;;20.60;11.50;;;;;;;2.98;100.00;100819.30;106287;1262;59291;-58
2024/03/01 00:54:07;;;;;;;25.10;13.20;;;;;;;2.96;100.00;100815.42;105899;1257;59212;-55
2024/03/01 00:56:35;;;;;;;27.50;15.60;;;;;;;2.94;100.00;100809.04;105864;1263;72113;-58
2024/03/01 00:59:02;;;;;;;24.40;14.00;;;;;;;2.90;100.00;100813.45;105863;1264;67754;-55
2024/03/01 01:01:30;;;;;;;24.80;12.40;;;;;;;2.85;100.00;100813.83;105880;1260;72797;-57
2024/03/01 01:03:57;;;;;;;25.70;12.60;;;;;;;2.82;100.00;100813.46;105836;1263;59715;-57
2024/03/01 01:06:24;;;;;;;25.90;12.50;;;;;;;2.78;100.00;100806.56;105716;1262;60128;-56
2024/03/01 01:08:52;;;;;;;25.00;12.30;;;;;;;2.76;100.00;100799.64;105837;1263;73091;-56
2024/03/01 01:11:19;;;;;;;24.90;11.90;;;;;;;2.72;100.00;100796.10;105739;1262;66294;-57
2024/03/01 01:13:47;;;;;;;23.20;12.90;;;;;;;2.71;100.00;100796.29;105772;1264;70171;-56
2024/03/01 01:16:14;;;;;;;20.00;12.50;;;;;;;2.70;100.00;100790.96;105826;1260;59713;-55
2024/03/01 01:18:41;;;;;;;28.60;13.30;;;;;;;2.70;100.00;100788.30;106824;1257;59577;-56
2024/03/01 01:21:09;;;;;;;21.60;13.50;;;;;;;2.70;100.00;100784.59;105791;1273;71747;-55
2024/03/01 01:23:36;;;;;;;28.50;15.80;;;;;;;2.70;100.00;100781.57;105836;1263;65699;-55
2024/03/01 01:26:03;;;;;;;28.00;16.40;;;;;;;2.70;100.00;100782.45;105969;1264;72893;-55
2024/03/01 01:28:31;;;;;;;27.80;17.00;;;;;;;2.69;100.00;100786.17;105889;1257;59628;-56
2024/03/01 01:30:58;;;;;;;30.60;18.50;;;;;;;2.69;100.00;100786.35;106025;1263;59721;-56
2024/03/01 01:33:25;;;;;;;28.50;16.10;;;;;;;2.69;100.00;100781.22;105925;1263;72096;-55
2024/03/01 01:35:53;;;;;;;26.50;16.50;;;;;;;2.68;100.00;100780.14;105928;1261;66528;-56
2024/03/01 01:38:20;;;;;;;30.30;15.50;;;;;;;2.66;100.00;100778.89;106078;1263;72726;-57
2024/03/01 01:40:49;;;;;;;33.10;15.90;;;;;;;2.65;100.00;100780.48;105917;1261;60642;-55
2024/03/01 01:43:16;;;;;;;23.00;14.30;;;;;;;2.65;100.00;100779.07;105889;1263;60076;-58
2024/03/01 01:45:44;;;;;;;25.90;15.70;;;;;;;2.66;100.00;100778.72;106249;1262;73460;-56
2024/03/01 01:48:11;;;;;;;23.00;13.00;;;;;;;2.68;100.00;100778.02;105864;1271;67505;-58
2024/03/01 01:50:38;;;;;;;26.80;14.70;;;;;;;2.67;100.00;100776.60;105872;1270;73015;-55
2024/03/01 01:53:05;;;;;;;29.00;14.90;;;;;;;2.65;100.00;100773.40;105822;1257;60258;-57
2024/03/01 01:55:46;;;;;;;23.20;14.70;;;;;;;2.63;100.00;100765.96;105923;1263;60833;-57
2024/03/01 01:58:14;;;;;;;23.10;13.20;;;;;;;2.61;100.00;100764.20;105918;1259;73137;-55
2024/03/01 02:00:42;;;;;;;27.90;15.50;;;;;;;2.60;100.00;100762.42;106087;1263;65656;-56
2024/03/01 02:03:10;;;;;;;27.50;16.00;;;;;;;2.60;100.00;100763.84;105782;1264;72715;-56
2024/03/01 02:05:37;;;;;;;24.30;14.40;;;;;;;2.60;100.00;100763.67;105813;1263;59886;-55
2024/03/01 02:08:05;;;;;;;34.40;16.20;;;;;;;2.60;100.00;100757.47;105743;1265;59769;-56
2024/03/01 02:10:32;;;;;;;34.10;17.60;;;;;;;2.59;100.00;100755.86;105768;1263;73110;-57
2024/03/01 02:13:02;;;;;;;31.50;17.40;;;;;;;2.57;100.00;100758.34;105889;1271;66308;-58
2024/03/01 02:15:34;;;;;;;25.40;15.30;;;;;;;2.55;100.00;100760.84;106557;1257;72458;-56
2024/03/01 02:18:02;;;;;;;29.00;17.10;;;;;;;2.53;100.00;100765.45;105827;1257;60831;-55
2024/03/01 02:20:30;;;;;;;33.20;17.60;;;;;;;2.52;100.00;100760.48;106184;1263;59603;-57
2024/03/01 02:23:00;;;;;;;27.20;14.70;;;;;;;2.49;100.00;100754.27;105857;1257;73152;-56
2024/03/01 02:25:28;;;;;;;27.10;16.10;;;;;;;2.45;100.00;100753.92;105804;1263;65719;-56
2024/03/01 02:27:55;;;;;;;32.60;17.40;;;;;;;2.42;100.00;100756.57;108761;1257;73068;-58
2024/03/01 02:30:23;;;;;;;26.50;16.10;;;;;;;2.39;100.00;100751.43;108720;1257;58673;-59
2024/03/01 02:32:50;;;;;;;29.20;16.10;;;;;;;2.38;100.00;100753.03;108848;1258;60999;-59
2024/03/01 02:35:17;;;;;;;26.60;15.10;;;;;;;2.39;100.00;100749.64;108730;1256;73123;-58
2024/03/01 02:37:45;;;;;;;27.30;15.80;;;;;;;2.41;100.00;100747.53;108751;1256;66962;-59
2024/03/01 02:40:13;;;;;;;32.10;17.60;;;;;;;2.43;100.00;100748.24;107486;1258;71506;-58
2024/03/01 02:42:40;;;;;;;30.90;18.30;;;;;;;2.46;100.00;100748.61;105831;1258;59754;-58
2024/03/01 02:45:08;;;;;;;29.60;18.80;;;;;;;2.48;100.00;100749.65;105857;1263;59397;-58
2024/03/01 02:47:35;;;;;;;35.10;18.50;;;;;;;2.46;100.00;100748.61;106068;1271;71822;-58
2024/03/01 02:50:07;;;;;;;37.70;20.90;;;;;;;2.43;100.00;100749.67;105786;1271;66760;-58
2024/03/01 02:52:34;;;;;;;34.80;19.80;;;;;;;2.40;100.00;100747.52;108787;1260;74155;-58
2024/03/01 02:55:03;;;;;;;31.30;20.10;;;;;;;2.38;100.00;100749.14;108762;1257;58353;-58
2024/03/01 02:57:30;;;;;;;30.80;19.50;;;;;;;2.33;100.00;100746.81;107308;1260;60478;-58
2024/03/01 02:59:57;;;;;;;29.80;19.40;;;;;;;2.27;100.00;100743.80;105823;1261;73123;-58
2024/03/01 03:02:26;;;;;;;27.20;18.50;;;;;;;2.24;100.00;100740.08;105831;1267;65763;-58
2024/03/01 03:04:53;;;;;;;44.40;22.00;;;;;;;2.21;100.00;100735.13;107976;1257;71782;-58
2024/03/01 03:07:20;;;;;;;37.30;20.40;;;;;;;2.19;100.00;100735.66;105850;1261;60898;-58
2024/03/01 03:09:48;;;;;;;41.20;21.70;;;;;;;2.19;100.00;100726.09;106881;1261;59768;-58
2024/03/01 03:12:15;;;;;;;36.20;20.70;;;;;;;2.18;100.00;100724.33;105839;1258;73193;-58
2024/03/01 03:14:43;;;;;;;36.90;19.50;;;;;;;2.16;100.00;100725.02;105880;1261;67055;-58
2024/03/01 03:17:10;;;;;;;41.50;21.70;;;;;;;2.17;100.00;100725.20;105824;1261;72711;-58
2024/03/01 03:19:37;;;;;;;41.30;23.50;;;;;;;2.19;100.00;100721.31;105861;1261;59714;-57
2024/03/01 03:22:08;;;;;;;38.60;22.20;;;;;;;2.20;100.00;100717.95;105994;1270;60514;-57
2024/03/01 03:24:37;;;;;;;44.60;24.20;;;;;;;2.22;100.00;100709.62;105961;1257;73483;-57
2024/03/01 03:27:05;;;;;;;48.40;27.00;;;;;;;2.23;100.00;100709.61;106026;1270;66304;-58
2024/03/01 03:29:34;;;;;;;57.20;29.90;;;;;;;2.25;100.00;100706.27;108854;1257;71695;-58
2024/03/01 03:32:03;;;;;;;47.30;27.60;;;;;;;2.24;100.00;100711.91;108358;1258;59843;-58
2024/03/01 03:34:30;;;;;;;64.10;32.80;;;;;;;2.21;100.00;100711.75;105808;1257;60015;-58
2024/03/01 03:36:58;;;;;;;57.20;32.70;;;;;;;2.18;100.00;100716.54;105735;1263;73111;-57
2024/03/01 03:39:25;;;;;;;53.60;30.90;;;;;;;2.15;100.00;100717.76;105754;1264;66356;-57
2024/03/01 03:41:53;;;;;;;42.90;27.90;;;;;;;2.12;100.00;100717.24;105821;1264;72870;-57
2024/03/01 03:44:20;;;;;;;41.20;23.40;;;;;;;2.13;100.00;100719.34;105813;1258;61381;-57
2024/03/01 03:46:48;;;;;;;50.20;24.60;;;;;;;2.14;100.00;100720.59;105874;1261;60172;-58
2024/03/01 03:49:16;;;;;;;47.00;23.60;;;;;;;2.16;100.00;100722.72;105949;1257;71829;-58
2024/03/01 03:51:43;;;;;;;42.40;24.60;;;;;;;2.17;100.00;100721.48;105870;1262;65791;-57
2024/03/01 03:54:13;;;;;;;48.00;26.70;;;;;;;2.19;100.00;100721.14;105922;1258;70501;-57
2024/03/01 03:56:42;;;;;;;45.10;25.90;;;;;;;2.22;100.00;100716.34;105928;1258;60901;-57
2024/03/01 03:59:09;;;;;;;45.80;26.20;;;;;;;2.24;100.00;100712.45;106675;1262;59622;-58
2024/03/01 04:01:37;;;;;;;48.10;27.10;;;;;;;2.26;100.00;100715.83;105767;1264;73021;-58
2024/03/01 04:04:05;;;;;;;50.40;28.40;;;;;;;2.27;100.00;100715.29;105840;1272;68422;-58
2024/03/01 04:06:32;;;;;;;46.20;28.20;;;;;;;2.26;100.00;100717.95;105910;1263;72679;-57
2024/03/01 04:09:00;;;;;;;49.80;27.00;;;;;;;2.26;100.00;100716.71;105831;1258;60367;-57
2024/03/01 04:11:27;;;;;;;45.40;27.70;;;;;;;2.25;100.00;100713.88;105791;1258;60292;-58
2024/03/01 04:13:55;;;;;;;47.50;27.80;;;;;;;2.22;100.00;100718.11;106073;1257;73043;-58
2024/03/01 04:16:22;;;;;;;46.70;27.20;;;;;;;2.20;100.00;100717.60;105780;1257;66076;-57
2024/03/01 04:18:50;;;;;;;44.00;26.50;;;;;;;2.17;100.00;100718.48;105997;1264;71409;-58
2024/03/01 04:21:17;;;;;;;53.60;27.20;;;;;;;2.15;100.00;100718.29;105900;1258;60922;-57
2024/03/01 04:23:44;;;;;;;42.10;24.20;;;;;;;2.14;100.00;100718.63;105887;1263;60367;-57
2024/03/01 04:26:12;;;;;;;44.80;23.80;;;;;;;2.12;100.00;100715.45;105814;1256;75108;-57
2024/03/01 04:28:39;;;;;;;41.20;22.50;;;;;;;2.11;100.00;100716.34;105998;1257;67731;-57
2024/03/01 04:31:07;;;;;;;40.20;21.50;;;;;;;2.11;100.00;100719.19;105992;1264;73770;-57
2024/03/01 04:33:38;;;;;;;45.20;24.40;;;;;;;2.13;100.00;100719.71;105731;1257;59669;-59
2024/03/01 04:36:06;;;;;;;38.00;22.00;;;;;;;2.16;100.00;100719.17;105936;1258;59987;-58
2024/03/01 04:38:34;;;;;;;38.40;21.90;;;;;;;2.18;100.00;100716.53;106008;1257;71890;-58
2024/03/01 04:41:02;;;;;;;39.00;21.90;;;;;;;2.19;100.00;100715.83;105889;1257;67331;-58
2024/03/01 04:43:29;;;;;;;37.80;23.30;;;;;;;2.21;100.00;100719.01;105824;1258;71467;-58
2024/03/01 04:45:56;;;;;;;41.00;24.00;;;;;;;2.23;100.00;100720.06;106349;1262;60442;-58
2024/03/01 04:48:24;;;;;;;44.10;25.30;;;;;;;2.24;100.00;100725.20;105881;1257;60737;-57
2024/03/01 04:50:52;;;;;;;41.70;24.90;;;;;;;2.24;100.00;100725.02;105839;1263;74392;-57
2024/03/01 04:53:20;;;;;;;45.60;25.70;;;;;;;2.23;100.00;100724.14;106113;1262;66951;-57
2024/03/01 04:55:47;;;;;;;37.30;23.20;;;;;;;2.22;100.00;100727.86;105997;1264;73272;-58
2024/03/01 04:58:15;;;;;;;41.20;24.60;;;;;;;2.22;100.00;100725.73;105896;1260;61473;-58
2024/03/01 05:00:42;;;;;;;40.40;24.50;;;;;;;2.21;100.00;100723.27;105917;1256;60511;-58
2024/03/01 05:03:10;;;;;;;43.50;24.70;;;;;;;2.21;100.00;100724.66;106367;1261;73879;-58
2024/03/01 05:05:38;;;;;;;41.20;22.10;;;;;;;2.21;100.00;100729.99;106866;1261;67011;-58
2024/03/01 05:08:07;;;;;;;43.00;21.60;;;;;;;2.22;100.00;100732.81;105873;1257;72732;-58
2024/03/01 05:10:34;;;;;;;39.90;21.70;;;;;;;2.24;100.00;100730.34;105824;1265;61475;-59
2024/03/01 05:13:02;;;;;;;44.40;22.50;;;;;;;2.24;100.00;100728.39;106236;1256;61200;-58
2024/03/01 05:15:29;;;;;;;44.10;22.30;;;;;;;2.26;100.00;100734.08;105746;1273;71725;-56
2024/03/01 05:17:57;;;;;;;40.10;22.00;;;;;;;2.28;100.00;100737.27;105848;1263;66001;-56
2024/03/01 05:20:24;;;;;;;46.10;23.50;;;;;;;2.30;100.00;100739.55;106107;1273;70825;-58
2024/03/01 05:22:52;;;;;;;42.90;23.30;;;;;;;2.31;100.00;100745.40;105741;1271;61307;-58
2024/03/01 05:25:19;;;;;;;42.00;24.80;;;;;;;2.33;100.00;100752.66;105885;1263;60406;-57
2024/03/01 05:27:48;;;;;;;44.70;25.50;;;;;;;2.34;100.00;100752.48;105799;1257;72761;-57
2024/03/01 05:30:18;;;;;;;43.40;24.50;;;;;;;2.33;100.00;100756.56;108737;1257;67635;-57
2024/03/01 05:33:04;;;;;;;43.30;23.40;;;;;;;2.31;100.00;100762.05;108727;1257;73226;-58
2024/03/01 05:35:31;;;;;;;45.30;25.20;;;;;;;2.29;100.00;100760.81;108367;1256;60544;-57
2024/03/01 05:37:58;;;;;;;39.90;25.20;;;;;;;2.29;100.00;100763.30;105835;1262;61565;-58
2024/03/01 05:40:26;;;;;;;38.60;22.60;;;;;;;2.28;100.00;100766.84;105771;1267;72667;-58
2024/03/01 05:42:54;;;;;;;39.50;21.80;;;;;;;2.27;100.00;100775.16;107772;1256;66261;-58
2024/03/01 05:45:22;;;;;;;38.90;21.40;;;;;;;2.29;100.00;100776.05;105924;1260;71422;-57
2024/03/01 05:47:49;;;;;;;34.50;20.40;;;;;;;2.31;100.00;100777.27;106115;1260;60410;-58
2024/03/01 05:50:16;;;;;;;37.70;19.90;;;;;;;2.34;100.00;100773.03;106207;1257;60440;-57
2024/03/01 05:52:44;;;;;;;36.80;19.00;;;;;;;2.37;100.00;100773.41;105992;1264;72921;-57
2024/03/01 05:55:12;;;;;;;33.90;19.40;;;;;;;2.42;100.00;100773.58;108802;1256;67317;-58
2024/03/01 05:57:40;;;;;;;41.00;22.70;;;;;;;2.47;100.00;100770.57;106502;1260;70666;-57
2024/03/01 06:00:18;;;;;;;57.20;32.80;;;;;;;2.53;100.00;100772.16;108902;1256;60078;-58
2024/03/01 06:02:46;;;;;;;41.40;24.60;;;;;;;2.60;100.00;100765.26;106571;1256;60625;-57
2024/03/01 06:05:14;;;;;;;35.00;21.70;;;;;;;2.64;100.00;100765.45;105893;1261;74150;-57
2024/03/01 06:07:42;;;;;;;38.60;22.30;;;;;;;2.66;100.00;100767.02;108843;1255;67618;-58
2024/03/01 06:10:09;;;;;;;32.30;21.10;;;;;;;2.68;100.00;100770.75;106363;1257;73064;-58
2024/03/01 06:12:37;;;;;;;38.50;22.30;;;;;;;2.68;100.00;100773.41;108996;1256;58678;-58
2024/03/01 06:15:05;;;;;;;46.20;26.90;;;;;;;2.68;100.00;100772.52;107058;1257;61344;-57
2024/03/01 06:17:33;;;;;;;41.40;27.40;;;;;;;2.68;100.00;100769.86;106105;1254;73706;-57
2024/03/01 06:20:02;;;;;;;46.10;29.00;;;;;;;2.67;100.00;100773.23;106113;1260;67253;-58
2024/03/01 06:22:30;;;;;;;41.20;25.20;;;;;;;2.67;100.00;100771.46;108147;1255;72735;-58
2024/03/01 06:24:58;;;;;;;35.60;20.80;;;;;;;2.68;100.00;100772.52;105877;1261;60388;-58
2024/03/01 06:27:26;;;;;;;39.20;21.10;;;;;;;2.69;100.00;100778.02;105873;1260;60451;-58
2024/03/01 06:29:54;;;;;;;36.10;19.90;;;;;;;2.71;100.00;100781.92;105886;1260;74311;-57
2024/03/01 06:32:21;;;;;;;34.50;19.30;;;;;;;2.74;100.00;100786.17;107384;1257;65802;-57
2024/03/01 06:34:49;;;;;;;29.70;18.30;;;;;;;2.79;100.00;100784.23;105883;1265;71197;-58
2024/03/01 06:37:18;;;;;;;33.30;18.40;;;;;;;2.85;100.00;100789.36;105981;1258;61327;-58
2024/03/01 06:39:46;;;;;;;31.90;21.00;;;;;;;2.90;100.00;100793.42;106573;1257;60642;-57
2024/03/01 06:42:13;;;;;;;31.60;19.80;;;;;;;2.96;100.00;100789.88;105920;1257;72626;-57
2024/03/01 06:44:40;;;;;;;37.10;20.10;;;;;;;3.01;100.00;100797.14;105981;1257;65704;-57
2024/03/01 06:47:08;;;;;;;37.10;21.70;;;;;;;3.06;100.00;100798.56;105921;1258;73269;-57
2024/03/01 06:49:45;;;;;;;33.30;22.60;;;;;;;3.10;100.00;100798.20;105983;1258;60770;-56
2024/03/01 06:52:13;;;;;;;34.90;21.10;;;;;;;3.13;100.00;100800.52;105983;1261;60310;-57
2024/03/01 06:54:41;;;;;;;33.00;20.20;;;;;;;3.17;100.00;100799.25;105860;1261;74409;-56
2024/03/01 06:57:08;;;;;;;32.30;20.20;;;;;;;3.20;100.00;100796.95;105966;1260;65836;-56
2024/03/01 06:59:38;;;;;;;33.20;19.60;;;;;;;3.24;100.00;100798.88;105887;1260;72311;-57
2024/03/01 07:02:06;;;;;;;39.10;19.70;;;;;;;3.29;100.00;100803.13;105908;1259;60514;-57
2024/03/01 07:04:33;;;;;;;32.00;17.90;;;;;;;3.35;100.00;100807.20;105964;1257;60533;-57
2024/03/01 07:07:01;;;;;;;38.00;19.80;;;;;;;3.43;100.00;100807.35;105815;1260;72666;-57
2024/03/01 07:09:28;;;;;;;36.50;19.10;;;;;;;3.52;100.00;100808.21;105934;1256;65734;-57
2024/03/01 07:11:56;;;;;;;32.80;20.80;;;;;;;3.62;100.00;100810.49;105906;1256;72989;-57
2024/03/01 07:14:23;;;;;;;38.50;20.90;;;;;;;3.73;100.00;100808.85;105889;1259;59309;-57
2024/03/01 07:16:51;;;;;;;33.00;20.70;;;;;;;3.85;100.00;100807.39;105824;1259;60514;-57
2024/03/01 07:19:18;;;;;;;37.80;19.70;;;;;;;3.94;100.00;100808.59;105849;1260;74622;-57
2024/03/01 07:21:45;;;;;;;33.90;20.50;;;;;;;4.04;100.00;100808.36;105870;1261;68341;-57
2024/03/01 07:24:13;;;;;;;35.60;21.50;;;;;;;4.13;100.00;100809.91;105943;1260;74118;-57
2024/03/01 07:26:40;;;;;;;38.10;22.30;;;;;;;4.21;100.00;100812.00;105841;1261;60221;-57
2024/03/01 07:29:07;;;;;;;37.50;20.80;;;;;;;4.29;100.00;100813.02;105941;1272;61476;-57
2024/03/01 07:31:35;;;;;;;44.20;22.00;;;;;;;4.36;100.00;100814.58;105917;1261;73384;-58
2024/03/01 07:34:02;;;;;;;36.10;20.90;;;;;;;4.44;100.00;100812.92;105917;1256;69274;-57
2024/03/01 07:36:29;;;;;;;37.10;20.10;;;;;;;4.52;100.00;100809.84;105923;1258;72915;-58
2024/03/01 07:38:57;;;;;;;35.10;20.70;;;;;;;4.61;100.00;100811.91;105890;1257;60545;-57
2024/03/01 07:41:24;;;;;;;29.30;17.10;;;;;;;4.70;100.00;100814.34;105836;1259;60412;-56
2024/03/01 07:43:52;;;;;;;27.80;16.00;;;;;;;4.80;100.00;100812.30;105917;1260;72693;-56
2024/03/01 07:46:19;;;;;;;26.40;15.50;;;;;;;4.90;100.00;100810.44;107892;1259;66920;-56
2024/03/01 07:48:47;;;;;;;32.00;15.00;;;;;;;5.01;100.00;100812.85;106111;1262;70500;-57
2024/03/01 07:51:14;;;;;;;25.50;15.60;;;;;;;5.12;100.00;100812.73;105840;1263;60588;-57
2024/03/01 07:53:42;;;;;;;27.90;16.60;;;;;;;5.24;100.00;100816.54;105873;1262;60479;-57
2024/03/01 07:56:10;;;;;;;25.90;16.30;;;;;;;5.35;100.00;100813.58;106017;1256;73611;-57
2024/03/01 07:58:38;;;;;;;31.50;17.90;;;;;;;5.47;100.00;100815.23;106252;1258;66037;-58
2024/03/01 08:01:07;;;;;;;27.80;16.10;;;;;;;5.58;100.00;100814.95;105990;1261;73618;-58
2024/03/01 08:03:35;;;;;;;34.80;17.80;;;;;;;5.68;100.00;100812.67;106005;1259;60397;-57
2024/03/01 08:06:03;;;;;;;33.00;17.70;;;;;;;5.77;100.00;100809.92;106111;1256;60594;-57
2024/03/01 08:08:36;;;;;;;31.70;17.60;;;;;;;5.84;100.00;100806.98;105852;1259;72745;-57
2024/03/01 08:11:10;;;;;;;29.00;17.60;;;;;;;5.92;100.00;100809.05;106199;1257;65869;-57
2024/03/01 08:13:37;;;;;;;28.90;17.70;;;;;;;6.00;100.00;100812.50;106229;1260;72763;-56
2024/03/01 08:16:10;;;;;;;27.50;17.60;;;;;;;6.08;100.00;100810.97;106014;1256;61085;-57
2024/03/01 08:18:38;;;;;;;31.50;17.50;;;;;;;6.16;100.00;100813.19;105957;1272;60515;-56
2024/03/01 08:21:08;;;;;;;24.10;15.20;;;;;;;6.24;100.00;100810.04;105914;1257;74328;-57
2024/03/01 08:23:38;;;;;;;22.60;15.60;;;;;;;6.34;100.00;100806.16;106130;1256;65987;-57
2024/03/01 08:26:22;;;;;;;27.30;15.40;;;;;;;6.45;100.00;100809.38;106043;1256;71451;-58
2024/03/01 08:28:50;;;;;;;19.10;13.10;;;;;;;6.56;100.00;100806.38;106337;1260;60456;-58
2024/03/01 08:31:24;;;;;;;24.70;15.00;;;;;;;6.67;100.00;100808.52;105986;1272;60611;-58
2024/03/01 08:34:14;;;;;;;26.20;13.40;;;;;;;6.78;100.00;100808.31;108841;1256;73908;-60
2024/03/01 08:36:41;;;;;;;21.10;14.20;;;;;;;6.91;100.00;100804.55;106884;1256;65771;-57
2024/03/01 08:39:10;;;;;;;19.10;10.80;;;;;;;7.00;100.00;100797.80;105993;1260;70555;-56
2024/03/01 08:41:39;;;;;;;20.50;12.50;;;;;;;7.08;100.00;100803.73;106196;1259;60895;-57
2024/03/01 08:44:24;;;;;;;21.50;11.90;;;;;;;7.16;100.00;100806.09;108909;1254;60110;-56
2024/03/01 08:46:51;;;;;;;35.20;23.20;;;;;;;7.25;100.00;100811.27;108854;1255;73708;-57
2024/03/01 08:49:51;;;;;;;21.40;13.30;;;;;;;7.33;100.00;100807.40;106272;1257;69223;-56
2024/03/01 08:52:22;;;;;;;21.10;11.90;;;;;;;7.43;100.00;100804.70;107690;1259;73626;-57
2024/03/01 08:54:51;;;;;;;20.30;12.20;;;;;;;7.50;100.00;100802.42;107669;1256;60014;-55
2024/03/01 08:57:25;;;;;;;22.00;13.40;;;;;;;7.57;100.00;100803.70;107990;1256;60572;-58
2024/03/01 08:59:52;;;;;;;23.40;13.20;;;;;;;7.65;100.00;100802.14;105882;1256;72523;-57
2024/03/01 09:02:26;;;;;;;24.30;13.60;;;;;;;7.72;100.00;100801.98;105976;1256;66212;-58
2024/03/01 09:04:53;;;;;;;20.50;12.60;;;;;;;7.80;100.00;100800.58;105947;1256;73042;-56
2024/03/01 09:07:25;;;;;;;21.30;12.10;;;;;;;7.89;100.00;100799.33;106267;1256;61258;-57
2024/03/01 09:09:53;;;;;;;19.40;12.80;;;;;;;7.99;100.00;100797.48;105876;1256;61360;-58
2024/03/01 09:12:24;;;;;;;27.50;14.70;;;;;;;8.10;100.00;100799.21;108855;1256;72620;-57
2024/03/01 09:14:58;;;;;;;18.90;12.00;;;;;;;8.20;100.00;100796.86;108904;1256;67512;-57
2024/03/01 09:17:25;;;;;;;19.20;12.50;;;;;;;8.27;100.00;100794.00;106942;1258;71236;-57
2024/03/01 09:19:53;;;;;;;20.30;13.00;;;;;;;8.32;100.00;100795.54;105842;1261;59466;-57
2024/03/01 09:22:20;;;;;;;18.60;13.10;;;;;;;8.36;100.00;100789.02;105874;1259;60512;-58
2024/03/01 09:24:48;;;;;;;20.60;12.70;;;;;;;8.40;100.00;100794.67;105895;1256;73006;-57
2024/03/01 09:27:34;;;;;;;19.30;11.10;;;;;;;8.41;100.00;100791.77;105943;1259;67378;-57
2024/03/01 09:30:05;;;;;;;15.90;11.10;;;;;;;8.46;100.00;100797.74;105914;1259;71467;-56
2024/03/01 09:32:33;;;;;;;21.00;10.80;;;;;;;8.50;100.00;100798.00;105796;1262;60523;-59
2024/03/01 09:35:01;;;;;;;24.50;12.30;;;;;;;8.54;100.00;100799.33;106248;1260;64159;-57
2024/03/01 09:37:29;;;;;;;22.50;12.40;;;;;;;8.57;100.00;100792.46;105857;1262;72628;-57
2024/03/01 09:39:59;;;;;;;24.40;14.60;;;;;;;8.61;100.00;100793.08;105840;1256;68189;-58
2024/03/01 09:42:50;;;;;;;19.50;12.30;;;;;;;8.61;100.00;100793.79;106050;1260;72700;-57
2024/03/01 09:45:39;;;;;;;30.80;18.10;;;;;;;8.62;100.00;100798.96;106274;1258;60709;-56
2024/03/01 09:48:12;;;;;;;23.10;15.20;;;;;;;8.60;100.00;100806.35;106065;1260;64617;-57
2024/03/01 09:50:52;;;;;;;24.40;14.00;;;;;;;8.58;100.00;100803.90;106799;1258;73890;-57
2024/03/01 09:53:35;;;;;;;26.90;16.00;;;;;;;8.57;100.00;100799.45;105970;1259;66152;-57
2024/03/01 09:56:06;;;;;;;21.40;12.80;;;;;;;8.58;100.00;100792.27;105907;1256;72589;-57
2024/03/01 09:58:39;;;;;;;24.10;14.90;;;;;;;8.59;100.00;100789.55;105958;1256;60306;-58
2024/03/01 10:01:13;;;;;;;26.30;17.30;;;;;;;8.59;100.00;100792.05;105923;1260;62583;-58
2024/03/01 10:03:48;;;;;;;25.00;15.50;;;;;;;8.60;100.00;100793.64;106204;1260;73888;-57
2024/03/01 10:06:21;;;;;;;23.50;15.50;;;;;;;8.60;100.00;100796.33;105894;1256;67036;-58
2024/03/01 10:08:52;;;;;;;19.80;11.50;;;;;;;8.61;100.00;100798.62;105866;1256;73016;-58
2024/03/01 10:11:33;;;;;;;19.10;11.50;;;;;;;8.62;100.00;100796.64;105814;1260;60677;-58
2024/03/01 10:14:11;;;;;;;23.40;12.90;;;;;;;8.64;100.00;100796.59;105900;1262;60671;-57
2024/03/01 10:16:50;;;;;;;18.40;11.90;;;;;;;8.66;100.00;100796.36;105840;1258;71626;-57
2024/03/01 10:19:39;;;;;;;19.70;11.00;;;;;;;8.69;100.00;100792.71;106017;1261;67002;-57
2024/03/01 10:22:34;;;;;;;21.20;12.30;;;;;;;8.70;100.00;100790.52;106345;1258;73770;-57
2024/03/01 10:25:08;;;;;;;21.70;12.90;;;;;;;8.72;100.00;100785.48;106312;1260;61366;-58
2024/03/01 10:27:37;;;;;;;33.00;17.50;;;;;;;8.74;100.00;100786.53;105949;1261;60476;-58
2024/03/01 10:30:20;;;;;;;22.20;12.20;;;;;;;8.77;100.00;100788.77;105787;1257;73923;-57
2024/03/01 10:33:13;;;;;;;24.30;12.60;;;;;;;8.81;100.00;100788.85;107216;1256;67412;-57
2024/03/01 10:35:47;;;;;;;27.30;14.10;;;;;;;8.85;100.00;100781.23;106023;1260;70489;-58
2024/03/01 10:38:29;;;;;;;21.20;11.90;;;;;;;8.90;100.00;100781.65;106094;1263;60858;-57
2024/03/01 10:41:15;;;;;;;21.60;12.80;;;;;;;8.93;100.00;100782.81;107456;1256;60726;-58
2024/03/01 10:44:13;;;;;;;19.40;12.10;;;;;;;8.97;100.00;100781.10;106068;1255;73957;-58
2024/03/01 10:46:51;;;;;;;18.80;11.40;;;;;;;9.00;100.00;100774.23;108078;1259;67465;-58
2024/03/01 10:49:27;;;;;;;17.20;10.40;;;;;;;9.03;100.00;100768.04;107712;1259;73299;-58
2024/03/01 10:51:58;;;;;;;21.00;9.70;;;;;;;9.07;100.00;100769.55;106437;1260;61123;-57
2024/03/01 10:54:26;;;;;;;18.90;10.30;;;;;;;9.12;100.00;100771.03;106211;1260;60484;-58
2024/03/01 10:56:54;;;;;;;20.10;12.80;;;;;;;9.15;100.00;100774.20;106019;1258;74002;-58
2024/03/01 10:59:32;;;;;;;18.20;10.40;;;;;;;9.18;100.00;100764.98;105960;1256;67233;-59
2024/03/01 11:02:00;;;;;;;15.60;8.50;;;;;;;9.21;100.00;100763.98;105861;1262;71532;-56
2024/03/01 11:04:41;;;;;;;20.20;10.00;;;;;;;9.23;100.00;100758.77;106268;1256;60472;-59
2024/03/01 11:07:39;;;;;;;12.80;8.60;;;;;;;9.25;100.00;100759.25;105850;1261;60563;-58
2024/03/01 11:10:30;;;;;;;12.80;8.00;;;;;;;9.27;100.00;100760.25;105844;1261;72667;-57
2024/03/01 11:12:59;;;;;;;15.10;9.70;;;;;;;9.30;100.00;100751.57;105770;1272;65720;-57
2024/03/01 11:15:28;;;;;;;18.20;9.10;;;;;;;9.33;100.00;100748.46;106614;1260;72778;-57